Time;durP1;ratioP1;P1;durP2;ratioP2;P2;SDS_P1;SDS_P2;PMS_P1;PMS_P2;Temp;Humidity;BMP_temperature;BMP_pressure;BME280_temperature;BME280_humidity;BME280_pressure;Samples;Min_cycle;Max_cycle;Signal;HPM_P1;HPM_P2
2023/12/27 00:00:43;;;;;;;15.63;6.75;;;;;;;7.53;100.00;101998.31;5075837;28;20044;-65
2023/12/27 00:03:31;;;;;;;16.63;6.72;;;;;;;7.49;100.00;101997.09;5080424;28;20107;-63
2023/12/27 00:06:20;;;;;;;16.92;6.25;;;;;;;7.43;100.00;102003.38;5087947;28;20115;-63
2023/12/27 00:09:08;;;;;;;16.73;6.72;;;;;;;7.36;100.00;102006.13;5086663;28;20075;-64
2023/12/27 00:11:56;;;;;;;17.30;6.28;;;;;;;7.24;100.00;101997.84;5086850;28;20048;-60
2023/12/27 00:14:44;;;;;;;15.95;7.15;;;;;;;7.25;100.00;101991.38;5091946;28;20044;-65
2023/12/27 00:17:32;;;;;;;15.80;6.35;;;;;;;7.25;100.00;101985.13;5101515;28;20032;-64
2023/12/27 00:20:20;;;;;;;13.65;6.45;;;;;;;7.18;100.00;101979.75;5084655;28;20387;-64
2023/12/27 00:23:08;;;;;;;13.82;5.90;;;;;;;7.21;100.00;101979.28;5102097;28;20058;-66
2023/12/27 00:25:57;;;;;;;14.40;5.93;;;;;;;7.24;100.00;101978.06;5086160;28;20074;-65
2023/12/27 00:28:45;;;;;;;13.88;5.93;;;;;;;7.28;100.00;101981.16;5094175;28;20051;-64
2023/12/27 00:31:33;;;;;;;19.40;6.07;;;;;;;7.23;100.00;101977.19;5093973;28;20064;-65
2023/12/27 00:34:21;;;;;;;16.35;6.30;;;;;;;7.17;100.00;101983.50;5093064;28;20040;-64
2023/12/27 00:37:10;;;;;;;13.35;5.80;;;;;;;7.17;100.00;101991.63;5078942;28;20051;-66
2023/12/27 00:39:58;;;;;;;12.50;5.78;;;;;;;7.21;100.00;101998.28;5079628;28;20139;-66
2023/12/27 00:42:46;;;;;;;18.13;6.00;;;;;;;7.25;100.00;101994.09;5093963;28;20048;-66
2023/12/27 00:45:34;;;;;;;19.08;6.25;;;;;;;7.29;100.00;101991.78;5073299;28;20476;-64
2023/12/27 00:48:22;;;;;;;17.08;6.35;;;;;;;7.29;100.00;101990.94;5059592;28;20036;-67
2023/12/27 00:51:19;;;;;;;16.20;6.18;;;;;;;7.30;100.00;101993.44;5077382;28;20594;-65
2023/12/27 00:54:07;;;;;;;17.48;6.75;;;;;;;7.31;100.00;101983.41;5090069;28;20384;-65
2023/12/27 00:56:55;;;;;;;14.80;5.53;;;;;;;7.33;100.00;101973.19;5092178;28;20127;-65
2023/12/27 00:59:43;;;;;;;17.17;6.22;;;;;;;7.27;100.00;101974.09;5092613;28;20173;-66
2023/12/27 01:02:31;;;;;;;17.50;6.53;;;;;;;7.15;100.00;101980.19;5093605;28;20116;-66
2023/12/27 01:05:19;;;;;;;17.88;7.78;;;;;;;7.09;100.00;101980.22;5092704;28;20097;-65
2023/12/27 01:08:07;;;;;;;15.25;6.50;;;;;;;7.10;100.00;101982.72;5093477;28;20071;-67
2023/12/27 01:10:57;;;;;;;16.92;6.35;;;;;;;7.12;100.00;101986.03;5079258;28;20415;-67
2023/12/27 01:13:45;;;;;;;15.60;6.20;;;;;;;7.15;100.00;101982.06;5096778;28;20028;-68
2023/12/27 01:16:33;;;;;;;19.35;6.45;;;;;;;7.10;100.00;101971.03;5091086;28;20043;-65
2023/12/27 01:19:21;;;;;;;14.00;6.00;;;;;;;7.01;100.00;101973.16;5093091;28;20510;-66
2023/12/27 01:22:09;;;;;;;22.60;6.53;;;;;;;7.00;100.00;101983.19;5078646;28;20464;-65
2023/12/27 01:24:57;;;;;;;18.23;6.78;;;;;;;7.02;100.00;101985.66;5077656;28;20044;-67
2023/12/27 01:27:46;;;;;;;15.95;6.43;;;;;;;7.04;100.00;101978.97;5072294;28;20040;-65
2023/12/27 01:30:37;;;;;;;17.15;6.03;;;;;;;7.07;100.00;101977.72;5073965;28;20050;-66
2023/12/27 01:33:25;;;;;;;17.63;6.00;;;;;;;7.09;100.00;101964.78;5077873;28;20044;-65
2023/12/27 01:36:14;;;;;;;16.42;6.47;;;;;;;7.08;100.00;101971.25;5106298;28;20441;-66
2023/12/27 01:39:02;;;;;;;16.92;6.80;;;;;;;7.06;100.00;101962.50;5089714;28;20036;-66
2023/12/27 01:41:51;;;;;;;16.38;5.88;;;;;;;6.97;100.00;101964.63;5098404;28;20491;-65
2023/12/27 01:44:39;;;;;;;16.80;5.63;;;;;;;6.93;100.00;101965.28;5090571;28;20047;-66
2023/12/27 01:47:27;;;;;;;15.55;5.75;;;;;;;6.89;100.00;101969.47;5092511;28;20050;-66
2023/12/27 01:50:16;;;;;;;16.30;5.97;;;;;;;6.87;100.00;101961.53;5077502;28;20441;-65
2023/12/27 01:53:04;;;;;;;16.02;5.90;;;;;;;6.88;100.00;101968.66;5059660;28;20044;-66
2023/12/27 01:55:53;;;;;;;16.33;6.30;;;;;;;6.85;100.00;101960.09;5073632;28;20080;-66
2023/12/27 01:58:42;;;;;;;16.02;6.07;;;;;;;6.75;100.00;101972.22;5038424;28;20056;-65
2023/12/27 02:01:30;;;;;;;18.83;5.97;;;;;;;6.72;100.00;101972.66;5073819;28;20444;-65
2023/12/27 02:04:19;;;;;;;19.05;6.85;;;;;;;6.76;100.00;101976.59;5057293;28;20044;-66
2023/12/27 02:07:07;;;;;;;15.93;6.03;;;;;;;6.80;100.00;101972.41;5071352;28;20075;-66
2023/12/27 02:10:12;;;;;;;13.85;5.95;;;;;;;6.85;100.00;101966.34;5081368;28;20032;-65
2023/12/27 02:13:07;;;;;;;15.93;6.30;;;;;;;6.81;100.00;101957.00;5057461;28;20121;-66
2023/12/27 02:15:55;;;;;;;19.50;6.57;;;;;;;6.78;100.00;101963.69;5058475;28;20098;-66
2023/12/27 02:18:44;;;;;;;20.08;6.05;;;;;;;6.81;100.00;101944.28;5058254;28;20041;-66
2023/12/27 02:21:32;;;;;;;20.92;6.45;;;;;;;6.85;100.00;101957.38;5061548;28;20147;-65
2023/12/27 02:24:22;;;;;;;15.70;5.95;;;;;;;6.86;100.00;101950.94;5063393;28;20056;-66
2023/12/27 02:27:10;;;;;;;14.30;5.68;;;;;;;6.86;100.00;101959.06;5078651;28;20123;-65
2023/12/27 02:29:58;;;;;;;18.75;6.07;;;;;;;6.82;100.00;101953.25;5075784;28;20047;-66
2023/12/27 02:32:47;;;;;;;17.83;6.18;;;;;;;6.83;100.00;101950.31;5089926;28;20063;-66
2023/12/27 02:35:35;;;;;;;18.52;6.07;;;;;;;6.85;100.00;101946.56;5061787;28;20075;-66
2023/12/27 02:38:23;;;;;;;20.35;5.97;;;;;;;6.83;100.00;101946.75;5072489;28;20040;-65
2023/12/27 02:41:11;;;;;;;16.70;6.45;;;;;;;6.82;100.00;101945.94;5073916;28;20032;-66
2023/12/27 02:43:59;;;;;;;20.85;6.38;;;;;;;6.81;100.00;101941.56;5078878;28;20098;-66
2023/12/27 02:46:47;;;;;;;16.65;5.70;;;;;;;6.74;100.00;101935.34;5090825;28;20053;-65
2023/12/27 02:49:35;;;;;;;17.20;6.07;;;;;;;6.72;100.00;101939.34;5077256;28;20082;-66
2023/12/27 02:52:24;;;;;;;17.85;5.70;;;;;;;6.72;100.00;101926.63;5084163;28;20114;-64
2023/12/27 02:55:12;;;;;;;17.73;6.38;;;;;;;6.74;100.00;101929.94;5098079;28;20051;-64
2023/12/27 02:57:59;;;;;;;15.07;5.70;;;;;;;6.74;100.00;101924.53;5091618;28;20399;-65
2023/12/27 03:00:48;;;;;;;16.58;5.60;;;;;;;6.77;100.00;101932.22;5091102;28;20043;-65
2023/12/27 03:03:37;;;;;;;13.60;5.43;;;;;;;6.81;100.00;101913.66;5092769;28;20080;-66
2023/12/27 03:06:25;;;;;;;16.40;5.72;;;;;;;6.82;100.00;101913.44;5094427;28;20504;-65
2023/12/27 03:09:13;;;;;;;17.60;5.65;;;;;;;6.86;100.00;101899.47;5096454;28;20054;-64
2023/12/27 03:12:01;;;;;;;17.70;6.20;;;;;;;6.83;100.00;101901.56;5094187;28;20104;-64
2023/12/27 03:14:50;;;;;;;16.45;5.93;;;;;;;6.75;100.00;101892.84;5081655;28;20122;-65
2023/12/27 03:17:38;;;;;;;16.27;5.60;;;;;;;6.69;100.00;101893.72;5096421;28;20055;-65
2023/12/27 03:20:26;;;;;;;14.25;5.40;;;;;;;6.67;100.00;101893.94;5097068;28;20047;-66
2023/12/27 03:23:15;;;;;;;16.10;5.28;;;;;;;6.67;100.00;101882.28;5081860;28;20055;-65
2023/12/27 03:26:03;;;;;;;16.05;6.00;;;;;;;6.71;100.00;101891.59;5096464;28;20064;-64
2023/12/27 03:28:51;;;;;;;16.55;5.80;;;;;;;6.74;100.00;101888.50;5096395;28;20048;-66
2023/12/27 03:31:39;;;;;;;17.75;6.18;;;;;;;6.78;100.00;101877.00;5095280;28;20484;-65
2023/12/27 03:34:27;;;;;;;15.93;5.68;;;;;;;6.81;100.00;101875.75;5093681;28;20046;-64
2023/12/27 03:37:16;;;;;;;16.73;5.68;;;;;;;6.84;100.00;101867.19;5079508;28;20384;-65
2023/12/27 03:40:07;;;;;;;18.90;6.35;;;;;;;6.83;100.00;101860.94;5095131;28;20040;-66
2023/12/27 03:42:55;;;;;;;19.05;5.78;;;;;;;6.82;100.00;101853.84;5094754;28;20115;-65
2023/12/27 03:45:45;;;;;;;16.05;5.75;;;;;;;6.77;100.00;101842.81;5080208;28;20503;-65
2023/12/27 03:48:33;;;;;;;21.00;6.50;;;;;;;6.69;100.00;101844.97;5087406;28;20533;-63
2023/12/27 03:51:22;;;;;;;17.50;6.20;;;;;;;6.65;100.00;101838.31;5074759;28;20119;-66
2023/12/27 03:54:10;;;;;;;16.02;6.05;;;;;;;6.61;100.00;101832.50;5076027;28;20066;-64
2023/12/27 03:56:58;;;;;;;16.20;5.50;;;;;;;6.56;100.00;101837.72;5079875;28;20052;-64
2023/12/27 03:59:46;;;;;;;18.38;5.72;;;;;;;6.50;100.00;101836.72;5094266;28;20036;-64
2023/12/27 04:02:35;;;;;;;14.73;5.68;;;;;;;6.46;100.00;101830.06;5068101;28;20040;-66
2023/12/27 04:05:23;;;;;;;15.20;5.43;;;;;;;6.43;100.00;101813.44;5078686;28;20135;-66
2023/12/27 04:08:11;;;;;;;18.48;6.63;;;;;;;6.39;100.00;101811.16;5073053;28;20127;-66
2023/12/27 04:11:00;;;;;;;17.63;6.03;;;;;;;6.36;100.00;101803.47;5074064;28;20507;-66
2023/12/27 04:13:48;;;;;;;17.35;5.93;;;;;;;6.29;100.00;101797.25;5085062;28;20042;-67
2023/12/27 04:16:37;;;;;;;26.35;6.32;;;;;;;6.29;100.00;101799.97;5074353;28;20043;-66
2023/12/27 04:19:25;;;;;;;16.00;6.25;;;;;;;6.29;100.00;101796.44;5060187;28;20079;-64
2023/12/27 04:22:13;;;;;;;14.13;5.88;;;;;;;6.33;100.00;101792.25;5075841;28;20076;-66
2023/12/27 04:25:03;;;;;;;20.52;6.03;;;;;;;6.36;100.00;101792.66;5096757;28;20126;-65
2023/12/27 04:27:51;;;;;;;17.98;5.43;;;;;;;6.42;100.00;101790.94;5094542;28;20040;-64
2023/12/27 04:30:39;;;;;;;20.67;5.90;;;;;;;6.40;100.00;101787.66;5088584;28;20122;-63
2023/12/27 04:33:27;;;;;;;16.67;6.65;;;;;;;6.32;100.00;101788.69;5112520;28;20043;-63
2023/12/27 04:36:15;;;;;;;20.02;6.68;;;;;;;6.32;100.00;101786.00;5088276;28;20104;-64
2023/12/27 04:39:06;;;;;;;17.73;6.50;;;;;;;6.28;100.00;101781.25;5086856;28;20036;-65
2023/12/27 04:41:54;;;;;;;19.85;5.93;;;;;;;6.25;100.00;101782.50;5069841;28;20503;-65
2023/12/27 04:44:42;;;;;;;16.30;5.40;;;;;;;6.25;100.00;101785.19;5065097;28;20040;-66
2023/12/27 04:47:30;;;;;;;20.08;6.00;;;;;;;6.29;100.00;101775.59;5064626;28;20117;-66
2023/12/27 04:50:19;;;;;;;20.08;5.78;;;;;;;6.33;100.00;101768.72;5092928;28;20717;-66
2023/12/27 04:53:07;;;;;;;18.85;5.72;;;;;;;6.37;100.00;101766.41;5058472;28;20036;-66
2023/12/27 04:55:55;;;;;;;16.27;4.95;;;;;;;6.42;100.00;101768.47;5058993;28;20036;-66
2023/12/27 04:58:43;;;;;;;12.20;4.95;;;;;;;6.46;100.00;101767.00;5076604;28;20130;-66
2023/12/27 05:01:31;;;;;;;16.50;5.10;;;;;;;6.48;100.00;101762.19;5077443;28;20075;-66
2023/12/27 05:04:19;;;;;;;14.20;5.60;;;;;;;6.50;100.00;101758.22;5057696;28;20028;-66
2023/12/27 05:07:08;;;;;;;21.80;6.03;;;;;;;6.51;100.00;101757.16;5072367;28;20495;-66
2023/12/27 05:09:57;;;;;;;23.70;6.32;;;;;;;6.53;100.00;101749.66;5072372;28;20040;-66
2023/12/27 05:12:45;;;;;;;15.82;5.00;;;;;;;6.50;100.00;101755.50;5091939;28;20506;-66
2023/12/27 05:15:32;;;;;;;20.05;5.85;;;;;;;6.53;100.00;101744.25;5060835;28;20041;-65
2023/12/27 05:18:22;;;;;;;20.02;5.50;;;;;;;6.60;100.00;101749.63;5109247;28;20154;-65
2023/12/27 05:21:12;;;;;;;18.33;5.35;;;;;;;6.65;100.00;101738.94;5077554;28;20123;-66
2023/12/27 05:24:00;;;;;;;14.75;4.90;;;;;;;6.69;100.00;101740.19;5078623;28;20044;-65
2023/12/27 05:26:48;;;;;;;13.10;5.13;;;;;;;6.70;100.00;101730.16;5076409;28;20046;-65
2023/12/27 05:29:38;;;;;;;16.33;5.30;;;;;;;6.71;100.00;101735.38;5111273;28;20125;-66
2023/12/27 05:32:26;;;;;;;17.95;5.38;;;;;;;6.71;100.00;101723.69;5091359;28;20371;-66
2023/12/27 05:35:14;;;;;;;15.55;5.05;;;;;;;6.71;100.00;101723.69;5093006;28;20047;-66
2023/12/27 05:38:02;;;;;;;15.30;4.95;;;;;;;6.67;100.00;101720.59;5077292;28;20071;-66
2023/12/27 05:40:50;;;;;;;16.25;5.63;;;;;;;6.68;100.00;101724.97;5064780;28;20036;-66
2023/12/27 05:43:38;;;;;;;13.50;4.78;;;;;;;6.70;100.00;101722.88;5092574;28;20407;-66
2023/12/27 05:46:26;;;;;;;14.70;5.43;;;;;;;6.71;100.00;101718.28;5063681;28;20499;-64
2023/12/27 05:49:14;;;;;;;13.57;4.57;;;;;;;6.72;100.00;101719.94;5091517;28;20074;-67
2023/12/27 05:52:03;;;;;;;14.82;5.28;;;;;;;6.68;100.00;101716.84;5082931;28;20134;-67
2023/12/27 05:54:51;;;;;;;16.92;5.20;;;;;;;6.68;100.00;101708.72;5071407;28;20045;-65
2023/12/27 05:57:39;;;;;;;18.10;4.70;;;;;;;6.68;100.00;101708.72;5082652;28;20468;-64
2023/12/27 06:00:27;;;;;;;18.42;5.03;;;;;;;6.70;100.00;101703.09;5076130;28;20048;-65
2023/12/27 06:03:15;;;;;;;15.70;5.05;;;;;;;6.70;100.00;101697.69;5099343;28;20047;-65
2023/12/27 06:06:04;;;;;;;15.07;4.88;;;;;;;6.67;100.00;101698.13;5064067;28;20118;-64
2023/12/27 06:08:53;;;;;;;14.95;5.40;;;;;;;6.61;100.00;101697.09;5076654;28;20052;-65
2023/12/27 06:11:41;;;;;;;15.82;5.10;;;;;;;6.56;100.00;101699.66;5091781;28;20438;-64
2023/12/27 06:14:29;;;;;;;14.00;5.82;;;;;;;6.53;100.00;101689.25;5091450;28;20048;-66
2023/12/27 06:17:18;;;;;;;14.25;5.10;;;;;;;6.47;100.00;101680.16;5067841;28;20079;-66
2023/12/27 06:20:09;;;;;;;15.00;5.55;;;;;;;6.50;100.00;101678.88;5071955;28;20558;-66
2023/12/27 06:22:57;;;;;;;16.13;4.90;;;;;;;6.56;100.00;101667.16;5067411;28;20376;-66
2023/12/27 06:25:45;;;;;;;14.40;5.15;;;;;;;6.60;100.00;101662.97;5059029;28;20511;-66
2023/12/27 06:28:33;;;;;;;16.30;5.45;;;;;;;6.60;100.00;101658.38;5091116;28;20127;-65
2023/12/27 06:31:21;;;;;;;13.55;5.20;;;;;;;6.59;100.00;101655.88;5061144;28;20058;-65
2023/12/27 06:34:12;;;;;;;16.50;5.72;;;;;;;6.58;100.00;101648.81;5084614;28;20043;-64
2023/12/27 06:37:00;;;;;;;15.45;4.90;;;;;;;6.64;100.00;101642.53;5062718;28;20178;-65
2023/12/27 06:39:48;;;;;;;12.77;4.72;;;;;;;6.68;100.00;101641.00;5078922;28;20036;-66
2023/12/27 06:42:36;;;;;;;16.33;5.35;;;;;;;6.70;100.00;101636.22;5094618;28;20391;-65
2023/12/27 06:45:25;;;;;;;13.00;4.63;;;;;;;6.68;100.00;101630.19;5061246;28;20174;-64
2023/12/27 06:48:13;;;;;;;16.23;4.53;;;;;;;6.67;100.00;101614.19;5061105;28;20044;-66
2023/12/27 06:51:03;;;;;;;17.80;5.40;;;;;;;6.64;100.00;101618.16;5074872;28;20111;-65
2023/12/27 06:53:51;;;;;;;20.50;6.43;;;;;;;6.67;100.00;101606.06;5077985;28;20044;-65
2023/12/27 06:56:39;;;;;;;14.63;4.93;;;;;;;6.68;100.00;101608.53;5081795;28;20586;-65
2023/12/27 06:59:27;;;;;;;15.82;5.40;;;;;;;6.70;100.00;101603.72;5101031;28;20075;-66
2023/12/27 07:02:15;;;;;;;12.00;4.72;;;;;;;6.71;100.00;101610.81;5114729;28;20081;-65
2023/12/27 07:05:04;;;;;;;17.17;4.60;;;;;;;6.72;100.00;101606.22;5078259;28;20495;-65
2023/12/27 07:07:52;;;;;;;13.30;5.43;;;;;;;6.72;100.00;101600.78;5079484;28;20048;-65
2023/12/27 07:10:40;;;;;;;12.73;4.65;;;;;;;6.70;100.00;101598.28;5046854;28;20516;-65
2023/12/27 07:13:28;;;;;;;11.40;4.90;;;;;;;6.66;100.00;101597.06;5060297;28;20044;-66
2023/12/27 07:16:16;;;;;;;12.63;4.70;;;;;;;6.67;100.00;101595.22;5060682;28;20040;-66
2023/12/27 07:19:04;;;;;;;15.82;5.10;;;;;;;6.67;100.00;101597.94;5076465;28;20032;-65
2023/12/27 07:21:52;;;;;;;14.68;5.30;;;;;;;6.67;100.00;101598.75;5089660;28;20455;-64
2023/12/27 07:24:40;;;;;;;14.38;4.75;;;;;;;6.71;100.00;101593.69;5083173;28;20116;-66
2023/12/27 07:27:28;;;;;;;14.93;4.70;;;;;;;6.79;100.00;101596.97;5097342;28;20484;-64
2023/12/27 07:30:17;;;;;;;11.77;4.25;;;;;;;6.83;100.00;101592.75;5079984;28;20036;-65
2023/12/27 07:33:05;;;;;;;10.73;3.97;;;;;;;6.85;100.00;101594.41;4358521;28;10000721;-67
2023/12/27 07:35:53;;;;;;;13.50;4.88;;;;;;;6.85;100.00;101583.56;5075819;28;20055;-66
2023/12/27 07:38:41;;;;;;;11.70;4.53;;;;;;;6.87;100.00;101586.88;5090825;28;20399;-65
2023/12/27 07:41:29;;;;;;;11.93;4.38;;;;;;;6.90;100.00;101586.44;5062369;28;20528;-65
2023/12/27 07:44:17;;;;;;;11.18;3.72;;;;;;;6.88;100.00;101588.53;5082411;28;20480;-66
2023/12/27 07:47:06;;;;;;;10.63;4.15;;;;;;;6.88;100.00;101599.38;5077717;28;20044;-66
2023/12/27 07:49:55;;;;;;;8.95;3.83;;;;;;;6.87;100.00;101587.72;5090581;28;20048;-66
2023/12/27 07:52:43;;;;;;;7.40;3.42;;;;;;;6.87;100.00;101581.47;5090812;28;20048;-64
2023/12/27 07:55:31;;;;;;;8.10;3.38;;;;;;;6.92;100.00;101584.31;5089243;28;20123;-65
2023/12/27 07:58:20;;;;;;;10.25;3.80;;;;;;;6.92;100.00;101576.19;5055416;28;20477;-65
2023/12/27 08:01:08;;;;;;;10.60;3.75;;;;;;;6.94;100.00;101579.53;5070426;28;20044;-65
2023/12/27 08:03:56;;;;;;;9.07;3.50;;;;;;;6.93;100.00;101580.59;5056587;28;20071;-66
2023/12/27 08:06:45;;;;;;;8.20;3.80;;;;;;;6.92;100.00;101578.91;5092404;28;20352;-66
2023/12/27 08:09:33;;;;;;;7.22;3.33;;;;;;;6.93;100.00;101567.84;5075331;28;20040;-66
2023/12/27 08:12:21;;;;;;;6.05;3.00;;;;;;;6.98;100.00;101568.00;5090988;28;20451;-66
2023/12/27 08:15:09;;;;;;;6.40;3.20;;;;;;;6.98;100.00;101578.03;5101386;28;20032;-67
2023/12/27 08:17:57;;;;;;;5.75;3.30;;;;;;;6.92;100.00;101578.91;5055970;28;20075;-65
2023/12/27 08:20:47;;;;;;;7.88;3.92;;;;;;;6.92;100.00;101563.47;5071807;28;20045;-65
2023/12/27 08:23:38;;;;;;;11.32;3.60;;;;;;;6.98;100.00;101567.19;5056553;28;20449;-65
2023/12/27 08:26:26;;;;;;;7.57;3.30;;;;;;;7.00;100.00;101559.66;5077511;28;20125;-65
2023/12/27 08:29:14;;;;;;;6.28;3.40;;;;;;;7.02;100.00;101563.81;5075252;28;20511;-65
2023/12/27 08:32:02;;;;;;;6.50;3.30;;;;;;;7.03;100.00;101551.06;5090198;28;20578;-65
2023/12/27 08:34:50;;;;;;;7.22;3.40;;;;;;;7.08;100.00;101534.97;5059453;28;20113;-66
2023/12/27 08:37:38;;;;;;;7.75;3.50;;;;;;;7.11;100.00;101530.97;5075534;28;20146;-67
2023/12/27 08:40:26;;;;;;;5.30;3.20;;;;;;;7.12;100.00;101530.75;5090461;28;20067;-65
2023/12/27 08:43:14;;;;;;;7.45;3.60;;;;;;;7.15;100.00;101516.75;5090826;28;20052;-65
2023/12/27 08:46:02;;;;;;;8.10;3.55;;;;;;;7.15;100.00;101522.16;5101266;28;20036;-63
2023/12/27 08:48:50;;;;;;;8.90;4.03;;;;;;;7.17;100.00;101516.53;5099722;28;20123;-64
2023/12/27 08:51:39;;;;;;;12.30;3.97;;;;;;;7.20;100.00;101506.03;5100558;28;20035;-65
2023/12/27 08:54:27;;;;;;;8.10;3.60;;;;;;;7.23;100.00;101489.31;5093618;28;20040;-65
2023/12/27 08:57:15;;;;;;;6.53;3.53;;;;;;;7.24;100.00;101490.97;5087869;28;20059;-65
2023/12/27 09:00:10;;;;;;;6.35;3.60;;;;;;;7.22;100.00;101506.63;5093329;28;20065;-63
2023/12/27 09:02:58;;;;;;;9.18;3.95;;;;;;;7.23;100.00;101500.16;5099742;28;20055;-65
2023/12/27 09:05:46;;;;;;;7.10;3.65;;;;;;;7.25;100.00;101489.91;5092244;28;20044;-63
2023/12/27 09:08:38;;;;;;;9.15;3.67;;;;;;;7.26;100.00;101490.72;5092322;28;20051;-65
2023/12/27 09:11:26;;;;;;;7.13;3.22;;;;;;;7.27;100.00;101483.44;5073525;28;20036;-65
2023/12/27 09:14:29;;;;;;;10.00;3.75;;;;;;;7.32;100.00;101475.44;5075842;28;20056;-66
2023/12/27 09:17:17;;;;;;;7.13;3.90;;;;;;;7.31;100.00;101485.47;5073035;28;20362;-65
2023/12/27 09:20:07;;;;;;;7.30;3.67;;;;;;;7.30;100.00;101474.84;5072469;28;20198;-66
2023/12/27 09:22:55;;;;;;;10.73;4.45;;;;;;;7.31;100.00;101484.63;5064074;28;20043;-65
2023/12/27 09:25:43;;;;;;;7.50;3.60;;;;;;;7.31;100.00;101492.75;5088734;28;20039;-66
2023/12/27 09:28:32;;;;;;;6.63;3.60;;;;;;;7.29;100.00;101478.59;5071854;28;20110;-67
2023/12/27 09:31:20;;;;;;;9.63;4.03;;;;;;;7.25;100.00;101465.50;5074112;28;20510;-66
2023/12/27 09:34:08;;;;;;;9.07;4.10;;;;;;;7.28;100.00;101458.00;5061246;28;20071;-66
2023/12/27 09:36:56;;;;;;;8.02;4.20;;;;;;;7.29;100.00;101459.63;5092119;28;20047;-67
2023/12/27 09:39:45;;;;;;;7.05;3.83;;;;;;;7.30;100.00;101455.88;5091422;28;20051;-67
2023/12/27 09:42:33;;;;;;;9.60;4.35;;;;;;;7.32;100.00;101451.06;5077057;28;20040;-67
2023/12/27 09:45:22;;;;;;;8.57;3.85;;;;;;;7.44;100.00;101441.06;5081371;28;20077;-66
2023/12/27 09:48:11;;;;;;;9.30;4.03;;;;;;;7.51;100.00;101447.22;5075789;28;20040;-66
2023/12/27 09:51:00;;;;;;;7.90;3.72;;;;;;;7.50;100.00;101453.69;5044280;28;20051;-66
2023/12/27 09:53:49;;;;;;;7.95;4.15;;;;;;;7.45;100.00;101438.09;5064301;28;20071;-67
2023/12/27 09:56:37;;;;;;;6.25;3.35;;;;;;;7.45;100.00;101450.84;5075856;28;20036;-68
2023/12/27 09:59:29;;;;;;;5.97;3.67;;;;;;;7.44;100.00;101446.50;5071649;28;20052;-67
2023/12/27 10:02:20;;;;;;;7.45;3.70;;;;;;;7.42;100.00;101446.72;5091100;28;20051;-66
2023/12/27 10:05:15;;;;;;;6.82;3.47;;;;;;;7.44;100.00;101451.91;5077991;28;20036;-66
2023/12/27 10:08:03;;;;;;;9.43;3.67;;;;;;;7.45;100.00;101457.09;5074764;28;20047;-66
2023/12/27 10:10:51;;;;;;;8.20;3.80;;;;;;;7.46;100.00;101449.81;5056815;28;20038;-65
2023/12/27 10:13:41;;;;;;;9.15;3.50;;;;;;;7.44;100.00;101441.06;5056781;28;20052;-67
2023/12/27 10:16:29;;;;;;;7.30;3.65;;;;;;;7.45;100.00;101453.56;5049630;28;20040;-66
2023/12/27 10:19:36;;;;;;;7.55;3.67;;;;;;;7.48;100.00;101436.84;5043259;28;20131;-66
2023/12/27 10:22:25;;;;;;;6.53;3.30;;;;;;;7.47;100.00;101425.16;5057058;28;20052;-66
2023/12/27 10:25:13;;;;;;;6.25;3.28;;;;;;;7.50;100.00;101429.28;5057703;28;20045;-65
2023/12/27 10:28:02;;;;;;;7.05;3.30;;;;;;;7.51;100.00;101425.53;5097464;28;20084;-65
2023/12/27 10:30:54;;;;;;;8.88;3.47;;;;;;;7.53;100.00;101418.00;5061786;28;20400;-67
2023/12/27 10:33:44;;;;;;;6.53;3.33;;;;;;;7.56;100.00;101419.41;5072496;28;20423;-65
2023/12/27 10:36:38;;;;;;;7.63;3.90;;;;;;;7.59;100.00;101413.50;5077613;28;20498;-66
2023/12/27 10:39:26;;;;;;;7.18;3.40;;;;;;;7.60;100.00;101397.03;5091253;28;20067;-67
2023/12/27 10:42:17;;;;;;;6.20;3.08;;;;;;;7.62;100.00;101394.88;5091882;28;20048;-66
2023/12/27 10:45:06;;;;;;;9.57;3.65;;;;;;;7.67;100.00;101376.03;5078281;28;20050;-67
2023/12/27 10:47:59;;;;;;;5.53;2.88;;;;;;;7.70;100.00;101382.88;5058187;28;20048;-66
2023/12/27 10:50:48;;;;;;;4.82;2.80;;;;;;;7.73;100.00;101378.88;5072531;28;20040;-66
2023/12/27 10:53:37;;;;;;;11.02;4.18;;;;;;;7.78;100.00;101365.41;5044228;28;20071;-66
2023/12/27 10:56:25;;;;;;;7.93;3.15;;;;;;;7.82;100.00;101377.47;5068621;28;20036;-64
2023/12/27 10:59:13;;;;;;;9.52;3.55;;;;;;;7.85;100.00;101376.97;5031175;28;20432;-66
2023/12/27 11:02:02;;;;;;;8.40;3.38;;;;;;;7.93;100.00;101368.47;5060597;28;20146;-66
2023/12/27 11:04:51;;;;;;;9.95;3.08;;;;;;;7.95;100.00;101366.34;5058920;28;20496;-67
2023/12/27 11:07:41;;;;;;;5.93;2.80;;;;;;;7.90;100.00;101347.25;5070524;28;20063;-66
2023/12/27 11:10:30;;;;;;;8.82;2.90;;;;;;;7.87;100.00;101350.44;5057723;28;20051;-65
2023/12/27 11:13:18;;;;;;;9.05;3.33;;;;;;;7.85;100.00;101344.41;5057030;28;20525;-66
2023/12/27 11:16:07;;;;;;;7.55;3.00;;;;;;;7.87;100.00;101345.00;5069042;28;20040;-66
2023/12/27 11:18:55;;;;;;;8.95;3.60;;;;;;;7.93;100.00;101335.09;5076794;28;20048;-65
2023/12/27 11:21:44;;;;;;;8.10;3.28;;;;;;;7.97;100.00;101330.84;5068951;28;20055;-63
2023/12/27 11:24:32;;;;;;;13.77;5.90;;;;;;;8.08;100.00;101322.69;5061655;28;20044;-64
2023/12/27 11:27:20;;;;;;;12.80;4.88;;;;;;;8.09;100.00;101337.91;5062231;28;20103;-64
2023/12/27 11:30:12;;;;;;;12.35;5.95;;;;;;;8.17;100.00;101314.16;5059425;28;20388;-65
2023/12/27 11:33:00;;;;;;;16.67;5.28;;;;;;;8.15;100.00;101310.84;5089829;28;20073;-65
2023/12/27 11:35:56;;;;;;;19.55;8.22;;;;;;;8.20;100.00;101310.97;4962674;28;10001427;-66
2023/12/27 11:38:46;;;;;;;23.67;10.13;;;;;;;8.36;100.00;101318.34;5064492;28;20332;-66
2023/12/27 11:41:37;;;;;;;30.70;11.60;;;;;;;8.57;100.00;101307.94;5071633;28;20091;-67
2023/12/27 11:44:41;;;;;;;20.55;10.00;;;;;;;8.44;100.00;101290.88;5069294;28;20083;-67
2023/12/27 11:47:31;;;;;;;19.55;9.75;;;;;;;8.48;100.00;101297.44;5070348;28;20040;-66
2023/12/27 11:50:20;;;;;;;20.98;10.20;;;;;;;8.61;100.00;101285.47;5075738;28;20044;-66
2023/12/27 11:53:08;;;;;;;31.35;13.95;;;;;;;8.62;100.00;101286.31;5062795;28;20476;-67
2023/12/27 11:56:02;;;;;;;21.90;9.98;;;;;;;8.67;100.00;101281.78;5077337;28;20419;-66
2023/12/27 11:58:50;;;;;;;25.25;12.05;;;;;;;8.66;100.00;101279.28;5072352;28;20122;-67
2023/12/27 12:01:40;;;;;;;32.90;14.82;;;;;;;8.60;100.00;101270.22;5099714;28;20596;-66
2023/12/27 12:04:49;;;;;;;24.65;11.18;;;;;;;8.64;100.00;101259.72;5077905;28;20059;-66
2023/12/27 12:07:42;;;;;;;11.38;3.30;;;;;;;8.58;100.00;101257.97;5074436;28;20044;-66
2023/12/27 12:10:30;;;;;;;9.70;3.10;;;;;;;8.37;100.00;101245.88;5077247;28;20472;-66
2023/12/27 12:13:19;;;;;;;11.88;3.10;;;;;;;8.25;100.00;101240.47;5075853;28;20174;-67
2023/12/27 12:16:07;;;;;;;10.07;3.33;;;;;;;8.21;100.00;101233.91;5049100;28;20042;-66
2023/12/27 12:18:56;;;;;;;21.85;9.43;;;;;;;8.41;100.00;101228.88;5076882;28;20587;-65
2023/12/27 12:21:46;;;;;;;21.67;9.98;;;;;;;8.50;100.00;101232.84;5049759;28;20098;-65
2023/12/27 12:24:34;;;;;;;23.58;11.43;;;;;;;8.55;100.00;101223.16;5072700;28;20052;-66
2023/12/27 12:27:22;;;;;;;29.15;12.23;;;;;;;8.62;100.00;101202.09;5074733;28;20080;-67
2023/12/27 12:30:12;;;;;;;16.70;7.78;;;;;;;8.74;100.00;101194.69;5084488;28;20162;-65
2023/12/27 12:33:00;;;;;;;22.48;9.65;;;;;;;8.74;100.00;101186.53;5099351;28;20097;-65
2023/12/27 12:35:52;;;;;;;19.70;8.80;;;;;;;8.78;100.00;101190.41;5104629;28;20123;-65
2023/12/27 12:38:40;;;;;;;26.88;8.70;;;;;;;8.72;100.00;101188.69;5093433;28;20033;-64
2023/12/27 12:41:28;;;;;;;21.27;9.35;;;;;;;8.64;100.00;101197.25;5099005;28;20121;-65
2023/12/27 12:44:17;;;;;;;17.55;7.75;;;;;;;8.85;100.00;101188.38;5064691;28;20036;-65
2023/12/27 12:47:05;;;;;;;21.00;7.95;;;;;;;8.95;100.00;101183.09;5077036;28;20491;-64
2023/12/27 12:49:53;;;;;;;12.38;5.82;;;;;;;8.84;100.00;101173.13;5060945;28;20036;-65
2023/12/27 12:52:42;;;;;;;11.32;5.22;;;;;;;8.73;100.00;101168.56;5077199;28;20502;-64
2023/12/27 12:55:31;;;;;;;13.30;5.45;;;;;;;8.64;100.00;101157.31;5078695;28;20071;-64
2023/12/27 12:58:19;;;;;;;13.75;5.45;;;;;;;8.71;100.00;101147.13;5078597;28;20052;-65